Tiempo atmosférico en la estación meteorológica de La Aldea De San Nicolas, Las Palmas (13 m.)



Fecha
DESCASC
Temp. máxima en grados centígrados (hora)
DESCASC
Temp. mínima en grados centígrados (hora)
DESCASC
Temp. media en grados centígrados
DESCASC
Racha de viento máxima en m/sg (hora)
DESCASC
Velocidad máxima media en intervalos de 10 minutos(hora)
DESCASC
Precipitaciones diarias en mm
DESCASC
Precipitaciones de 00:00 a 06:00 en mm
DESCASC
Precipitaciones de 06:00 a 12:00 en mm
DESCASC
Precipitaciones de 12:00 a 18:00 en mm
DESCASC
Precipitaciones de 18:00 a 24:00 en mm
DESCASC

Gráficas

Temp. máximas Temp. mínimas Temp. medias Precipitaciones Rachas de viento máximas Velocidades máximas media en intervalos de 10 minutos

Datos horarios

Fecha y hora oficial Temperatura (ºC) Velocidad del viento (km/h) Dirección del viento Racha (km/h) Dirección de racha Precipitación (mm) Presión (hPa) Tendencia (hPa) Humedad (%)
2020-01-17 23:00:00 11.1 10 Este 12 Este 0 1027.9 1.2 57
2020-01-17 22:00:00 12.1 10 Este 12 Este 0 1027.5 1.3 54
2020-01-17 21:00:00 13.1 9 Este 12 Este 0 1027 1.3 50
2020-01-17 20:00:00 14.5 9 Este 10 Sudeste 0 1026.7 1.3 48
2020-01-17 19:00:00 17.8 4 Sudeste 18 Oeste 0 1026.2 0.6 43
2020-01-17 18:00:00 20.1 12 Oeste 22 Oeste 0 1025.7 -0.3 43
2020-01-17 17:00:00 22 14 Oeste 20 Oeste 0 1025.4 -1.2 31
2020-01-17 16:00:00 22.3 14 Oeste 20 Oeste 0 1025.6 -2.1 24
2020-01-17 15:00:00 22 14 Oeste 22 Oeste 0 1026 -2.5 30
2020-01-17 14:00:00 21.7 13 Oeste 21 Noroeste 0 1026.6 -2.1 41
2020-01-17 13:00:00 20.8 12 Oeste 17 Noroeste 0 1027.7 -0.4 46
2020-01-17 12:00:00 20.3 10 Oeste 19 Noroeste 0 1028.5 0.7 46
2020-01-17 11:00:00 19.4 8 Noroeste 14 Noroeste 0 1028.7 1.3 41
2020-01-17 10:00:00 16.3 6 Sudeste 14 Este 0 1028.1 1.3 25
2020-01-17 09:00:00 10.4 8 Este 11 Sudeste 0 1027.8 1.6 54
2020-01-17 08:00:00 8.4 8 Este 15 Este 0 1027.4 1.6 59
2020-01-17 07:00:00 8.7 11 Este 14 Este 0 1026.8 0.9 58
2020-01-17 06:00:00 8.8 12 Este 13 Este 0 1026.2 0.3 62
2020-01-17 05:00:00 8.9 11 Este 13 Este 0 1025.8 -0.1 65
2020-01-17 04:00:00 9 7 Este 11 Este 0 1025.9 -0.6 69
2020-01-17 03:00:00 9.7 7 Este 14 Este 0 1025.9 -1.1 68
2020-01-17 02:00:00 10.3 8 Este 12 Este 0 1025.9 -1 65
2020-01-17 01:00:00 10.9 9 Este 12 Sudeste 0 1026.5 0 65
2020-01-17 00:00:00 11 10 Este 13 Este 0 1027 0.6 66
2020-01-16 23:00:00 11.3 8 Este 11 Este 0 1026.9 1.1 66
2020-01-16 22:00:00 12.2 9 Este 12 Sudeste 0 1026.5 1.4 55
2020-01-16 21:00:00 13.3 9 Este 12 Este 0 1026.4 1.5 51
2020-01-16 20:00:00 14.6 8 Este 10 Sudeste 0 1025.8 1 44
2020-01-16 19:00:00 18.3 4 Sudoeste 13 Oeste 0 1025.1 0.6 46
2020-01-16 18:00:00 20.1 9 Oeste 15 Oeste 0 1024.9 0.8 43
2020-01-16 17:00:00 21.1 11 Oeste 20 Noroeste 0 1024.8 0.4 41
2020-01-16 16:00:00 21.6 13 Oeste 23 Noroeste 0 1024.5 -0.9 41
2020-01-16 15:00:00 21.8 13 Oeste 20 Oeste 0 1024.1 -1.6 44
2020-01-16 14:00:00 21.9 12 Oeste 19 Oeste 0 1024.4 -1.6 43
2020-01-16 13:00:00 21.8 11 Oeste 19 Oeste 0 1025.4 -0.3 39
2020-01-16 12:00:00 20.9 15 Oeste 19 Oeste 0 1025.7 0.8 35
2020-01-16 11:00:00 20.2 2 Sudeste 14 Sudeste 0 1026 2.1 21
2020-01-16 10:00:00 17.1 9 Este 14 Este 0 1025.7 2.3 28
2020-01-16 09:00:00 11.7 10 Este 14 Este 0 1024.9 1.9 42
2020-01-16 08:00:00 9.2 8 Este 13 Este 0 1023.9 1 50
2020-01-16 07:00:00 10.3 12 Este 15 Este 0 1023.4 0.6 50
2020-01-16 06:00:00 10.2 10 Este 15 Este 0 1023 0.5 53
2020-01-16 05:00:00 10.1 10 Este 16 Este 0 1022.9 0 59
2020-01-16 04:00:00 10.1 9 Este 13 Este 0 1022.8 -0.3 60
2020-01-16 03:00:00 10 9 Este 12 Este 0 1022.5 -0.5 61
2020-01-16 02:00:00 10.3 8 Este 13 Este 0 1022.9 -0.1 63
2020-01-16 01:00:00 10.7 10 Este 14 Este 0 1023.1 0.5 64
2020-01-16 00:00:00 11 8 Este 13 Este 0 1023 0.5 64
2020-01-15 23:00:00 11.9 9 Este 13 Sudeste 0 1023 1.1 63
2020-01-15 22:00:00 12.6 8 Sudeste 13 Este 0 1022.6 1.3 61
2020-01-15 21:00:00 13.9 9 Este 11 Este 0 1022.5 1.6 57
2020-01-15 20:00:00 15.2 8 Este 10 Sudeste 0 1021.9 1.2 52
2020-01-15 19:00:00 17.8 6 Sudoeste 17 Nordeste 0 1021.3 0.6 46
2020-01-15 18:00:00 19.8 12 Norte 26 Norte 0 1020.9 0.1 43
2020-01-15 17:00:00 21.2 12 Norte 31 Norte 0 1020.7 0.2 39
2020-01-15 16:00:00 22 13 Nordeste 26 Norte 0 1020.7 -0.6 36
2020-01-15 15:00:00 21.9 9 Norte 22 Norte 0 1020.8 -1.2 34
2020-01-15 14:00:00 21.5 14 Noroeste 20 Norte 0 1020.5 -1.9 32
2020-01-15 13:00:00 21.3 13 Norte 23 Norte 0 1021.3 -0.9 30
2020-01-15 12:00:00 21.1 10 Noroeste 23 Noroeste 0 1022 0.1 25
2020-01-15 11:00:00 19.9 4 Sur 14 Este 0 1022.4 0.8 24
2020-01-15 10:00:00 16.2 9 Este 14 Este 0 1022.2 1.3 29
2020-01-15 09:00:00 10.5 10 Este 13 Este 0 1021.9 1.9 45
2020-01-15 08:00:00 8.5 9 Este 12 Este 0 1021.6 1.6 49
2020-01-15 07:00:00 8.8 9 Este 11 Sudeste 0 1020.9 0.6 50
2020-01-15 06:00:00 8.9 8 Este 13 Este 0 1020 -0.3 49
2020-01-15 05:00:00 9.3 8 Nordeste 14 Este 0 1020 -0.5 49
2020-01-15 04:00:00 10 9 Este 15 Este 0 1020.3 -0.7 50
2020-01-15 03:00:00 10.1 10 Este 12 Este 0 1020.3 -0.8 53
2020-01-15 02:00:00 10.6 9 Este 12 Este 0 1020.5 -0.3 54
2020-01-15 01:00:00 10.6 8 Este 12 Este 0 1021 0.8 56
2020-01-15 00:00:00 11 8 Este 11 Este 0 1021.1 1.3 53
2020-01-14 23:00:00 12.1 8 Este 12 Sudeste 0 1020.8 1.5 48
2020-01-14 22:00:00 13.5 6 Este 13 Sudeste 0 1020.2 1.1 44
2020-01-14 21:00:00 15.1 8 Este 13 Sudeste 0 1019.8 1.3 41
2020-01-14 20:00:00 18.6 11 Nordeste 15 Nordeste 0 1019.3 0.6 51
2020-01-14 19:00:00 19.7 7 Este 16 Nordeste 0 1019.1 1 29
2020-01-14 18:00:00 21.2 7 Oeste 19 Oeste 0 1018.5 0.3 24
2020-01-14 17:00:00 22.4 13 Oeste 25 Norte 0 1018.7 0.2 24
2020-01-14 16:00:00 25.5 9 Sudeste 32 Sudoeste 0 1018.1 -1.2 23
2020-01-14 15:00:00 25.7 14 Sur 26 Sur 0 1018.2 -2.2 19
2020-01-14 14:00:00 24.2 7 Noroeste 29 Norte 0 1018.5 -2.3 25
2020-01-14 13:00:00 24.7 10 Sur 29 Sur 0 1019.3 -1.3 21
2020-01-14 12:00:00 23.9 14 Sur 34 Sur 0 1020.4 0.2 23
2020-01-14 11:00:00 22.3 15 Sur 30 Sudeste 0 1020.8 1.2 24
2020-01-14 10:00:00 20.2 14 Sudeste 28 Sudeste 0 1020.6 1.5 31
2020-01-14 09:00:00 12.9 7 Este 19 Este 0 1020.2 1.8 46
2020-01-14 08:00:00 10.6 10 Este 15 Este 0 1019.6 1.3 46
2020-01-14 07:00:00 9.9 7 Sudeste 15 Sudeste 0 1019.1 0.4 47
2020-01-14 06:00:00 9.6 8 Sudeste 15 Sudeste 0 1018.4 -0.6 48
2020-01-14 05:00:00 9.9 8 Este 16 Sudeste 0 1018.3 -1.1 47
2020-01-14 04:00:00 9.9 9 Este 12 Sudeste 0 1018.7 -1 49
2020-01-14 03:00:00 11 5 Este 14 Este 0 1019 -1.2 42
2020-01-14 02:00:00 11.4 7 Este 16 Sudeste 0 1019.4 -1.2 42
2020-01-14 01:00:00 12 8 Sudeste 16 Sudeste 0 1019.7 -1.2 40
2020-01-14 00:00:00 12.6 10 Este 14 Sudeste 0 1020.2 -0.5 40
2020-01-13 23:00:00 13.2 6 Este 12 Sudeste 0 1020.6 0.1 38
2020-01-13 22:00:00 14 6 Este 12 Este 0 1020.9 0.8 37
2020-01-13 21:00:00 15.2 8 Este 12 Este 0 1020.7 1.3 36
2020-01-13 20:00:00 17.1 8 Este 10 Este 0 1020.5 1.4 33
2020-01-13 19:00:00 19.9 5 Oeste 21 Sur 0 1020.1 1 42
2020-01-13 18:00:00 21.3 6 Noroeste 21 Norte 0 1019.4 0.2 44
2020-01-13 17:00:00 22.7 9 Noroeste 21 Norte 0 1019.1 -0.7 38
2020-01-13 16:00:00 22.8 14 Norte 26 Norte 0 1019.1 -1.7 40
2020-01-13 15:00:00 23.1 13 Norte 24 Noroeste 0 1019.2 -2.6 36
2020-01-13 14:00:00 24.4 8 Oeste 24 Nordeste 0 1019.8 -2.7 28
2020-01-13 13:00:00 22.5 10 Norte 23 Noroeste 0 1020.8 -1.3 40
2020-01-13 12:00:00 21 12 Noroeste 21 Noroeste 0 1021.8 0 49
2020-01-13 11:00:00 20.5 12 Noroeste 18 Noroeste 0 1022.5 1.2 41
2020-01-13 10:00:00 17.6 3 Nordeste 11 Sudeste 0 1022.1 1.2 37
2020-01-13 09:00:00 12.1 7 Este 11 Este 0 1021.8 1.3 53
2020-01-13 08:00:00 10.5 8 Este 15 Este 0 1021.3 1.1 52
2020-01-13 07:00:00 10.5 10 Este 13 Este 0 1020.9 0 53
2020-01-13 06:00:00 10.5 11 Este 14 Este 0 1020.5 -0.6 54
2020-01-13 05:00:00 10.6 10 Este 14 Este 0 1020.2 -0.9 56
2020-01-13 04:00:00 10.6 10 Este 14 Este 0 1020.9 -0.6 60
2020-01-13 03:00:00 11.1 10 Este 13 Este 0 1021.1 -0.7 62
2020-01-13 02:00:00 11.5 10 Este 12 Este 0 1021.1 -1.6 69
2020-01-13 01:00:00 12.3 11 Sudeste 13 Sudeste 0 1021.5 -1.2 74
2020-01-13 00:00:00 12.6 9 Este 13 Este 0 1021.8 -0.3 73
2020-01-12 23:00:00 13.6 7 Este 15 Este 0 1022.7 0.2 69
2020-01-12 22:00:00 13.8 9 Este 12 Este 0 1022.7 -0.3 68
2020-01-12 21:00:00 15.1 4 Este 10 Sudeste 0 1022.1 -0.4 62
2020-01-12 20:00:00 16.5 6 Este 13 Oeste 0 1022.5 0.7 57
2020-01-12 19:00:00 18.8 10 Oeste 24 Sudoeste 0 1023 1.8 52
2020-01-12 18:00:00 20 11 Oeste 30 Oeste 0 1022.5 1.7 53
2020-01-12 17:00:00 20.8 16 Oeste 36 Oeste 0 1021.8 0.8 48
2020-01-12 16:00:00 21.4 18 Oeste 32 Oeste 0 1021.2 -1.1 49
2020-01-12 15:00:00 21.9 14 Oeste 26 Sudoeste 0 1020.8 -2.8 47
2020-01-12 14:00:00 22.2 15 Sudoeste 23 Sudoeste 0 1021 -3.2 47
2020-01-12 13:00:00 21.6 12 Sudoeste 21 Oeste 0 1022.3 -2.1 46
2020-01-12 12:00:00 20.7 8 Noroeste 23 Norte 0 1023.6 -0.1 48
2020-01-12 11:00:00 20.2 4 Oeste 11 Sur 0 1024.2 1.5 47
2020-01-12 10:00:00 18.7 7 Nordeste 15 Este 0 1024.4 2.2 55
2020-01-12 09:00:00 14.9 6 Este 15 Sudeste 0 1023.7 2.1 66
2020-01-12 08:00:00 15.9 8 Este 46 Norte 0 1022.7 0.2 60
2020-01-12 07:00:00 17.7 26 Nordeste 45 Nordeste 0 1022.2 -1.2 53
2020-01-12 06:00:00 17.6 20 Nordeste 44 Este 0 1021.6 -1.8 59
2020-01-12 05:00:00 17.5 18 Nordeste 32 Nordeste 0 1022.5 -1.3 67
2020-01-12 04:00:00 17.8 16 Nordeste 35 Nordeste 0 1023.4 -0.7 58
2020-01-12 03:00:00 17.8 17 Nordeste 33 Nordeste 0 1023.4 -1.2 66
2020-01-12 02:00:00 17.8 12 Este 30 Este 0 1023.8 -0.9 65
2020-01-12 01:00:00 17.8 10 Este 34 Nordeste 0 1024.1 -0.1 60
2020-01-12 00:00:00 17.8 13 Nordeste 34 Este 0 1024.6 0.6 61
2020-01-11 23:00:00 16.8 20 Nordeste 42 Norte 0 1024.7 1.2 73
2020-01-11 22:00:00 17.6 18 Nordeste 37 Este 0 1024.2 0.8 63
2020-01-11 21:00:00 18.2 17 Este 41 Este 0 1024 0.7 55
2020-01-11 20:00:00 18.5 14 Sudeste 37 Este 0 1023.5 0.5 52
2020-01-11 19:00:00 18.6 17 Este 36 Este 0 1023.4 0.9 56
2020-01-11 18:00:00 19.1 23 Nordeste 48 Nordeste 0 1023.3 0.7 60
2020-01-11 17:00:00 20.9 26 Este 61 Nordeste 0 1023 -0.2 57
2020-01-11 16:00:00 20.4 26 Nordeste 71 Este 0 1022.5 -1.5 58
2020-01-11 15:00:00 21.9 29 Este 67 Este 0 1022.6 -2.5 50
2020-01-11 14:00:00 22.6 23 Este 68 Este 0 1023.2 -2.4 48
2020-01-11 13:00:00 22.7 17 Este 51 Este 0 1024 -1.3 48
2020-01-11 12:00:00 21.5 24 Nordeste 57 Este 0 1025.1 0.6 49
2020-01-11 11:00:00 21.1 26 Este 59 Este 0 1025.6 1.4 54
2020-01-11 10:00:00 19.2 14 Sudeste 51 Este 0 1025.3 1.3 47
2020-01-11 09:00:00 18.1 21 Este 50 Nordeste 0 1024.5 0.7 57
2020-01-11 08:00:00 17.6 20 Nordeste 49 Este 0 1024.2 0.3 58
2020-01-11 07:00:00 17.6 29 Nordeste 62 Nordeste 0 1024 -0.4 58
2020-01-11 06:00:00 17.6 30 Este 68 Este 0 1023.8 -0.4 63
2020-01-11 05:00:00 18 32 Nordeste 58 Nordeste 0 1023.9 -0.7 60
2020-01-11 04:00:00 18.1 33 Nordeste 56 Nordeste 0 1024.4 -0.7 65
2020-01-11 03:00:00 18.6 24 Nordeste 60 Este 0 1024.2 -1.2 58
2020-01-11 02:00:00 18.3 28 Nordeste 58 Nordeste 0 1024.6 -1.1 68
2020-01-11 01:00:00 18.1 27 Nordeste 64 Este 0 1025.1 -0.7 73
2020-01-11 00:00:00 18.4 23 Este 54 Este 0 1025.4 -0.3 68
2020-01-10 23:00:00 18.9 26 Nordeste 51 Norte 0 1025.7 0.2 62
2020-01-10 22:00:00 19.1 30 Nordeste 57 Nordeste 0 1025.8 0.6 59
2020-01-10 21:00:00 18.7 24 Nordeste 39 Nordeste 0 1025.7 0.7 63
2020-01-10 20:00:00 19.1 18 Nordeste 50 Nordeste 0 1025.5 0.8 53
2020-01-10 19:00:00 19.5 21 Nordeste 49 Nordeste 0 1025.2 0.6 54
2020-01-10 18:00:00 20.3 21 Nordeste 49 Nordeste 0 1025 0.6 53
2020-01-10 17:00:00 21.5 39 Nordeste 62 Nordeste 0 1024.7 -0.5 48
2020-01-10 16:00:00 20.3 41 Nordeste 57 Nordeste 0 1024.6 -1.6 64
2020-01-10 15:00:00 23.9 24 Nordeste 49 Nordeste 0 1024.4 -1.9 43
2020-01-10 14:00:00 22.8 26 Nordeste 49 Norte 0 1025.2 -2.1 47
2020-01-10 13:00:00 21.4 22 Nordeste 52 Nordeste 0 1026.2 -0.6 57
2020-01-10 12:00:00 21.3 31 Nordeste 55 Nordeste 0 1026.3 0.3 58
2020-01-10 11:00:00 20.8 28 Nordeste 48 Nordeste 0 1027.3 2.3 63
2020-01-10 10:00:00 19.9 30 Nordeste 47 Nordeste 0 1026.8 1.7 64
2020-01-10 09:00:00 18.2 26 Norte 48 Nordeste 0 1026 0.7 75
2020-01-10 08:00:00 18.4 12 Sudeste 59 Sudeste 0 1025 -0.5 67
2020-01-10 07:00:00 18.3 20 Este 49 Este 0 1025.1 -0.9 69
2020-01-10 06:00:00 18.7 23 Este 61 Este 0 1025.3 -0.9 58
2020-01-10 05:00:00 18.4 23 Este 48 Este 0 1025.5 -0.8 61
2020-01-10 04:00:00 18.7 21 Este 44 Nordeste 0 1026 -0.7 56
2020-01-10 03:00:00 18.7 19 Este 48 Este 0 1026.2 -0.5 57
2020-01-10 02:00:00 18.8 22 Nordeste 38 Nordeste 0 1026.3 -1.1 60
2020-01-10 01:00:00 18.4 15 Sudeste 50 Nordeste 0 1026.7 -0.7 52
2020-01-10 00:00:00 18.2 28 Este 51 Este 0 1026.7 -0.8 53
2020-01-09 23:00:00 18 29 Este 52 Este 0 1027.4 0.4 59
2020-01-09 22:00:00 18.4 24 Este 51 Este 0 1027.4 1 56
2020-01-09 21:00:00 18.4 22 Este 44 Este 0 1027.5 1.5 56
2020-01-09 20:00:00 18.6 22 Sudeste 48 Este 0 1027 1.3 60
2020-01-09 19:00:00 18.6 26 Sudeste 58 Este 0 1026.4 0.9 65
2020-01-09 18:00:00 19.5 29 Este 50 Este 0 1026 0.2 60
2020-01-09 17:00:00 21.3 29 Este 59 Este 0 1025.7 -0.2 52
2020-01-09 16:00:00 21.4 27 Este 62 Este 0 1025.5 -1.6 48
2020-01-09 15:00:00 20.9 27 Este 62 Este 0 1025.8 -1.8 54
2020-01-09 14:00:00 21.7 24 Este 48 Este 0 1025.9 -1.8 51
2020-01-09 13:00:00 20.8 26 Este 68 Este 0 1027.1 0 52
2020-01-09 12:00:00 21.3 28 Sudeste 49 Este 0 1027.6 1 51
2020-01-09 11:00:00 20.1 22 Este 53 Este 0 1027.7 1.6 56
2020-01-09 10:00:00 20 16 Este 39 Este 0 1027.1 1.2 45
2020-01-09 09:00:00 18.4 14 Nordeste 40 Este 0 1026.6 1.2 59
2020-01-09 08:00:00 17.4 18 Nordeste 30 Este 0 1026.1 0.7 58
2020-01-09 07:00:00 17.5 18 Nordeste 37 Este 0 1025.9 0.2 62
2020-01-09 06:00:00 17.6 21 Nordeste 36 Este 0 1025.4 -0.5 58
2020-01-09 05:00:00 17.2 19 Nordeste 33 Nordeste 0 1025.4 -0.7 61
2020-01-09 04:00:00 17.1 16 Este 29 Nordeste 0 1025.7 -0.8 50
2020-01-09 03:00:00 17.5 18 Nordeste 28 Nordeste 0 1025.9 -0.7 60
2020-01-09 02:00:00 17.7 19 Nordeste 33 Nordeste 0 1026.1 -0.9 61
2020-01-09 01:00:00 17.9 13 Nordeste 35 Nordeste 0 1026.5 -0.3 62
2020-01-09 00:00:00 17.9 16 Sudeste 32 Nordeste 0 1026.6 -0.2 64
2020-01-08 23:00:00 17.9 12 Este 33 Este 0 1027 0.5 62
2020-01-08 22:00:00 17.5 13 Este 33 Este 0 1026.8 1.1 58
2020-01-08 21:00:00 17.9 15 Este 31 Este 0 1026.8 1.5 59
2020-01-08 20:00:00 18 18 Este 38 Este 0 1026.5 1.6 61
2020-01-08 19:00:00 18.5 18 Este 50 Este 0 1025.7 1 60
2020-01-08 18:00:00 19.7 27 Este 49 Este 0 1025.3 0.8 55
2020-01-08 17:00:00 21.9 23 Este 48 Este 0 1024.9 0 44
2020-01-08 16:00:00 22.4 19 Nordeste 45 Nordeste 0 1024.7 -1.1 38
2020-01-08 15:00:00 22.3 23 Nordeste 40 Nordeste 0 1024.5 -2.4 40
2020-01-08 14:00:00 22.5 22 Nordeste 40 Nordeste 0 1024.9 -2.4 42
2020-01-08 13:00:00 22 21 Nordeste 36 Nordeste 0 1025.8 -1.1 40
2020-01-08 12:00:00 19.4 22 Nordeste 35 Nordeste 0 1026.9 0.6 53
2020-01-08 11:00:00 18.8 13 Nordeste 27 Este 0 1027.3 1.8 54
2020-01-08 10:00:00 16.3 9 Este 16 Sudeste 0 1026.9 2 54
2020-01-08 09:00:00 12.9 6 Este 17 Sudeste 0 1026.3 1.7 66
2020-01-08 08:00:00 11.7 8 Sudeste 17 Sudeste 0 1025.5 0.7 70
2020-01-08 07:00:00 11.9 9 Este 14 Sudeste 0 1024.9 -0.2 71
2020-01-08 06:00:00 14 8 Este 29 Nordeste 0 1024.6 -0.4 63
2020-01-08 05:00:00 17.3 13 Nordeste 33 Norte 0 1024.8 -0.4 58
2020-01-08 04:00:00 17.3 19 Nordeste 32 Norte 0 1025.1 -0.2 65
2020-01-08 03:00:00 14 10 Sudeste 26 Nordeste 0 1025 -0.8 63
2020-01-08 02:00:00 17.6 15 Nordeste 28 Nordeste 0 1025.2 -0.8 60
2020-01-08 01:00:00 17.1 13 Nordeste 28 Nordeste 0 1025.3 -0.5 62
2020-01-08 00:00:00 17.7 16 Nordeste 29 Nordeste 0 1025.8 0.4 61
2020-01-07 23:00:00 17.9 18 Nordeste 34 Nordeste 0 1026 0.8 57
2020-01-07 22:00:00 18.1 16 Nordeste 34 Nordeste 0 1025.8 1.3 63
2020-01-07 21:00:00 18.2 17 Este 36 Este 0 1025.4 1.7 67
2020-01-07 20:00:00 18.3 13 Nordeste 31 Nordeste 0 1025.2 1.9 62
2020-01-07 19:00:00 18.8 25 Nordeste 40 Nordeste 0 1024.5 1.2 57
2020-01-07 18:00:00 20.2 19 Nordeste 37 Norte 0 1023.7 0.2 44
2020-01-07 17:00:00 21.1 15 Norte 36 Norte 0 1023.3 -0.3 41
2020-01-07 16:00:00 20.7 18 Norte 45 Nordeste 0 1023.3 -1.1 46
2020-01-07 15:00:00 20.3 22 Nordeste 48 Nordeste 0 1023.5 -1.8 49
2020-01-07 14:00:00 20.5 28 Norte 53 Nordeste 0 1023.6 -2.3 51
2020-01-07 13:00:00 20.8 29 Norte 48 Nordeste 0 1024.4 -1.1 49
2020-01-07 12:00:00 20.6 24 Nordeste 41 Nordeste 0 1025.3 0.7 49
2020-01-07 11:00:00 20 22 Nordeste 35 Nordeste 0 1025.9 2.3 47
2020-01-07 10:00:00 19.4 18 Nordeste 30 Nordeste 0 1025.5 2.7 47
2020-01-07 09:00:00 18.1 14 Nordeste 24 Nordeste 0 1024.6 2.6 48
2020-01-07 08:00:00 16.3 10 Este 19 Nordeste 0 1023.6 1.5 55
2020-01-07 07:00:00 15.9 3 Sudeste 27 Nordeste 0 1022.8 0.6 68
2020-01-07 06:00:00 17.6 15 Nordeste 38 Nordeste 0 1022 -0.6 64
2020-01-07 05:00:00 17.7 18 Nordeste 35 Nordeste 0 1022.1 -0.8 61
2020-01-07 04:00:00 17.8 22 Nordeste 42 Este 0 1022.2 -0.6 59
2020-01-07 03:00:00 17.5 17 Nordeste 41 Este 0 1022.6 -1.1 67
2020-01-07 02:00:00 17.7 29 Este 60 Este 0 1022.9 -1.1 67
2020-01-07 01:00:00 18 26 Sudeste 54 Este 0 1022.8 -1 63
2020-01-07 00:00:00 17.9 21 Este 45 Este 0 1023.7 0.7 63
2020-01-06 23:00:00 18.1 19 Este 49 Este 0 1024 0.9 53
2020-01-06 22:00:00 17.9 24 Este 52 Este 0 1023.8 0.9 61
2020-01-06 21:00:00 18.4 25 Sudeste 45 Sudeste 0 1023 0.4 67
2020-01-06 20:00:00 18.2 23 Este 58 Este 0 1023.1 0.4 62
2020-01-06 19:00:00 18.6 24 Sudeste 60 Este 0 1022.9 0.6 65
2020-01-06 18:00:00 19.1 25 Sudeste 49 Este 0 1022.6 0.1 61
2020-01-06 17:00:00 19.8 27 Sudeste 50 Este 0 1022.7 -0.3 57
2020-01-06 16:00:00 20.5 26 Sudeste 56 Este 0 1022.3 -1.7 51
2020-01-06 15:00:00 21.6 25 Sudeste 61 Este 0 1022.5 -2.5 50
2020-01-06 14:00:00 22 25 Sudeste 53 Este 0 1023 -3 51
2020-01-06 13:00:00 22.8 27 Este 55 Este 0 1024 -2 46
2020-01-06 12:00:00 21.6 21 Este 50 Este 0 1025 0 48
2020-01-06 11:00:00 20.1 25 Este 55 Este 0 1026 1.4 52
2020-01-06 10:00:00 18.4 20 Este 51 Este 0 1026 1.5 57
2020-01-06 09:00:00 18.4 20 Este 55 Este 0 1025 0.6 51